sensor_id;sensor_type;location;lat;lon;timestamp;P1;durP1;ratioP1;P2;durP2;ratioP2
25627;SDS011;40915;50.826;4.356;2023-11-21T00:00:54;36.90;;;19.57;;
25627;SDS011;40915;50.826;4.356;2023-11-21T00:03:20;38.83;;;20.25;;
25627;SDS011;40915;50.826;4.356;2023-11-21T00:05:48;40.23;;;20.30;;
25627;SDS011;40915;50.826;4.356;2023-11-21T00:08:14;43.50;;;21.40;;
25627;SDS011;40915;50.826;4.356;2023-11-21T00:10:39;39.53;;;21.40;;
25627;SDS011;40915;50.826;4.356;2023-11-21T00:13:05;37.88;;;20.67;;
25627;SDS011;40915;50.826;4.356;2023-11-21T00:15:32;42.80;;;21.80;;
25627;SDS011;40915;50.826;4.356;2023-11-21T00:17:57;39.72;;;22.15;;
25627;SDS011;40915;50.826;4.356;2023-11-21T00:20:23;39.40;;;21.90;;
25627;SDS011;40915;50.826;4.356;2023-11-21T00:22:49;37.28;;;20.77;;
25627;SDS011;40915;50.826;4.356;2023-11-21T00:25:14;39.17;;;22.20;;
25627;SDS011;40915;50.826;4.356;2023-11-21T00:27:42;39.10;;;22.27;;
25627;SDS011;40915;50.826;4.356;2023-11-21T00:30:08;43.60;;;22.30;;
25627;SDS011;40915;50.826;4.356;2023-11-21T00:32:37;45.47;;;23.60;;
25627;SDS011;40915;50.826;4.356;2023-11-21T00:35:03;39.93;;;22.17;;
25627;SDS011;40915;50.826;4.356;2023-11-21T00:37:29;45.17;;;23.03;;
25627;SDS011;40915;50.826;4.356;2023-11-21T00:39:57;39.90;;;21.88;;
25627;SDS011;40915;50.826;4.356;2023-11-21T00:42:22;42.40;;;21.97;;
25627;SDS011;40915;50.826;4.356;2023-11-21T00:44:48;40.92;;;21.75;;
25627;SDS011;40915;50.826;4.356;2023-11-21T00:47:14;45.33;;;21.47;;
25627;SDS011;40915;50.826;4.356;2023-11-21T00:49:39;47.07;;;22.73;;
25627;SDS011;40915;50.826;4.356;2023-11-21T00:52:06;43.33;;;22.80;;
25627;SDS011;40915;50.826;4.356;2023-11-21T00:54:31;39.97;;;21.57;;
25627;SDS011;40915;50.826;4.356;2023-11-21T00:56:58;36.53;;;21.00;;
25627;SDS011;40915;50.826;4.356;2023-11-21T00:59:24;38.90;;;21.48;;
25627;SDS011;40915;50.826;4.356;2023-11-21T01:01:50;42.10;;;22.63;;
25627;SDS011;40915;50.826;4.356;2023-11-21T01:04:15;39.30;;;20.13;;
25627;SDS011;40915;50.826;4.356;2023-11-21T01:06:41;42.63;;;22.03;;
25627;SDS011;40915;50.826;4.356;2023-11-21T01:09:06;42.17;;;22.13;;
25627;SDS011;40915;50.826;4.356;2023-11-21T01:11:34;38.47;;;20.07;;
25627;SDS011;40915;50.826;4.356;2023-11-21T01:14:02;38.17;;;21.93;;
25627;SDS011;40915;50.826;4.356;2023-11-21T01:16:28;34.07;;;20.50;;
25627;SDS011;40915;50.826;4.356;2023-11-21T01:18:54;37.50;;;21.07;;
25627;SDS011;40915;50.826;4.356;2023-11-21T01:21:19;38.47;;;18.83;;
25627;SDS011;40915;50.826;4.356;2023-11-21T01:23:45;36.30;;;19.73;;
25627;SDS011;40915;50.826;4.356;2023-11-21T01:26:12;36.53;;;20.10;;
25627;SDS011;40915;50.826;4.356;2023-11-21T01:28:38;36.17;;;20.07;;
25627;SDS011;40915;50.826;4.356;2023-11-21T01:31:03;34.97;;;20.70;;
25627;SDS011;40915;50.826;4.356;2023-11-21T01:33:29;40.00;;;22.17;;
25627;SDS011;40915;50.826;4.356;2023-11-21T01:35:54;36.20;;;18.70;;
25627;SDS011;40915;50.826;4.356;2023-11-21T01:38:21;34.47;;;19.30;;
25627;SDS011;40915;50.826;4.356;2023-11-21T01:40:47;33.58;;;18.65;;
25627;SDS011;40915;50.826;4.356;2023-11-21T01:43:12;32.90;;;19.47;;
25627;SDS011;40915;50.826;4.356;2023-11-21T01:45:38;38.43;;;21.30;;
25627;SDS011;40915;50.826;4.356;2023-11-21T01:48:04;38.83;;;23.17;;
25627;SDS011;40915;50.826;4.356;2023-11-21T01:50:31;34.15;;;21.25;;
25627;SDS011;40915;50.826;4.356;2023-11-21T01:52:58;39.33;;;22.23;;
25627;SDS011;40915;50.826;4.356;2023-11-21T01:55:24;38.43;;;21.70;;
25627;SDS011;40915;50.826;4.356;2023-11-21T01:57:52;31.23;;;18.53;;
25627;SDS011;40915;50.826;4.356;2023-11-21T02:00:18;32.08;;;19.42;;
25627;SDS011;40915;50.826;4.356;2023-11-21T02:02:45;37.33;;;21.87;;
25627;SDS011;40915;50.826;4.356;2023-11-21T02:05:12;39.03;;;21.73;;
25627;SDS011;40915;50.826;4.356;2023-11-21T02:07:40;36.43;;;20.83;;
25627;SDS011;40915;50.826;4.356;2023-11-21T02:10:07;35.87;;;20.40;;
25627;SDS011;40915;50.826;4.356;2023-11-21T02:12:34;35.23;;;18.67;;
25627;SDS011;40915;50.826;4.356;2023-11-21T02:15:03;28.35;;;16.90;;
25627;SDS011;40915;50.826;4.356;2023-11-21T02:17:39;28.80;;;16.47;;
25627;SDS011;40915;50.826;4.356;2023-11-21T02:20:08;29.33;;;17.90;;
25627;SDS011;40915;50.826;4.356;2023-11-21T02:22:40;32.30;;;17.30;;
25627;SDS011;40915;50.826;4.356;2023-11-21T02:25:07;32.70;;;18.13;;
25627;SDS011;40915;50.826;4.356;2023-11-21T02:27:33;27.87;;;16.30;;
25627;SDS011;40915;50.826;4.356;2023-11-21T02:29:59;28.17;;;17.37;;
25627;SDS011;40915;50.826;4.356;2023-11-21T02:32:26;26.43;;;16.20;;
25627;SDS011;40915;50.826;4.356;2023-11-21T02:34:51;27.27;;;16.07;;
25627;SDS011;40915;50.826;4.356;2023-11-21T02:37:17;26.60;;;14.27;;
25627;SDS011;40915;50.826;4.356;2023-11-21T02:39:42;26.47;;;14.87;;
25627;SDS011;40915;50.826;4.356;2023-11-21T02:42:08;27.88;;;16.90;;
25627;SDS011;40915;50.826;4.356;2023-11-21T02:44:33;30.20;;;16.37;;
25627;SDS011;40915;50.826;4.356;2023-11-21T02:46:59;28.33;;;15.77;;
25627;SDS011;40915;50.826;4.356;2023-11-21T02:49:25;25.83;;;16.37;;
25627;SDS011;40915;50.826;4.356;2023-11-21T02:51:53;29.30;;;16.13;;
25627;SDS011;40915;50.826;4.356;2023-11-21T02:54:20;30.50;;;16.73;;
25627;SDS011;40915;50.826;4.356;2023-11-21T02:56:47;28.57;;;16.20;;
25627;SDS011;40915;50.826;4.356;2023-11-21T02:59:14;29.77;;;15.67;;
25627;SDS011;40915;50.826;4.356;2023-11-21T03:01:40;29.90;;;16.37;;
25627;SDS011;40915;50.826;4.356;2023-11-21T03:04:06;29.70;;;15.10;;
25627;SDS011;40915;50.826;4.356;2023-11-21T03:06:32;24.90;;;13.25;;
25627;SDS011;40915;50.826;4.356;2023-11-21T03:08:58;24.58;;;13.32;;
25627;SDS011;40915;50.826;4.356;2023-11-21T03:11:24;28.73;;;14.20;;
25627;SDS011;40915;50.826;4.356;2023-11-21T03:13:50;24.37;;;12.83;;
25627;SDS011;40915;50.826;4.356;2023-11-21T03:16:18;23.20;;;12.10;;
25627;SDS011;40915;50.826;4.356;2023-11-21T03:18:44;23.58;;;12.25;;
25627;SDS011;40915;50.826;4.356;2023-11-21T03:21:10;23.47;;;12.13;;
25627;SDS011;40915;50.826;4.356;2023-11-21T03:23:36;25.43;;;12.37;;
25627;SDS011;40915;50.826;4.356;2023-11-21T03:26:02;25.73;;;11.87;;
25627;SDS011;40915;50.826;4.356;2023-11-21T03:28:28;26.90;;;13.00;;
25627;SDS011;40915;50.826;4.356;2023-11-21T03:30:55;21.50;;;13.10;;
25627;SDS011;40915;50.826;4.356;2023-11-21T03:33:21;28.10;;;14.40;;
25627;SDS011;40915;50.826;4.356;2023-11-21T03:35:47;25.97;;;15.00;;
25627;SDS011;40915;50.826;4.356;2023-11-21T03:38:13;28.20;;;15.27;;
25627;SDS011;40915;50.826;4.356;2023-11-21T03:40:38;30.33;;;16.07;;
25627;SDS011;40915;50.826;4.356;2023-11-21T03:43:05;26.77;;;15.37;;
25627;SDS011;40915;50.826;4.356;2023-11-21T03:45:31;25.27;;;15.98;;
25627;SDS011;40915;50.826;4.356;2023-11-21T03:47:57;28.60;;;15.88;;
25627;SDS011;40915;50.826;4.356;2023-11-21T03:50:22;29.48;;;17.20;;
25627;SDS011;40915;50.826;4.356;2023-11-21T03:52:48;28.60;;;17.42;;
25627;SDS011;40915;50.826;4.356;2023-11-21T03:55:13;29.27;;;17.97;;
25627;SDS011;40915;50.826;4.356;2023-11-21T03:57:40;28.33;;;17.87;;
25627;SDS011;40915;50.826;4.356;2023-11-21T04:00:06;29.60;;;16.27;;
25627;SDS011;40915;50.826;4.356;2023-11-21T04:02:33;30.87;;;17.57;;
25627;SDS011;40915;50.826;4.356;2023-11-21T04:04:59;33.83;;;19.70;;
25627;SDS011;40915;50.826;4.356;2023-11-21T04:07:25;30.83;;;17.92;;
25627;SDS011;40915;50.826;4.356;2023-11-21T04:09:50;26.50;;;18.00;;
25627;SDS011;40915;50.826;4.356;2023-11-21T04:12:16;30.90;;;18.57;;
25627;SDS011;40915;50.826;4.356;2023-11-21T04:14:41;29.47;;;18.73;;
25627;SDS011;40915;50.826;4.356;2023-11-21T04:17:07;29.90;;;18.45;;
25627;SDS011;40915;50.826;4.356;2023-11-21T04:19:32;35.25;;;18.95;;
25627;SDS011;40915;50.826;4.356;2023-11-21T04:21:58;36.83;;;20.07;;
25627;SDS011;40915;50.826;4.356;2023-11-21T04:24:24;31.55;;;18.73;;
25627;SDS011;40915;50.826;4.356;2023-11-21T04:26:49;33.37;;;20.37;;
25627;SDS011;40915;50.826;4.356;2023-11-21T04:29:15;34.50;;;20.27;;
25627;SDS011;40915;50.826;4.356;2023-11-21T04:31:40;29.95;;;19.13;;
25627;SDS011;40915;50.826;4.356;2023-11-21T04:34:06;33.30;;;19.37;;
25627;SDS011;40915;50.826;4.356;2023-11-21T04:36:33;29.00;;;18.33;;
25627;SDS011;40915;50.826;4.356;2023-11-21T04:38:59;33.28;;;20.35;;
25627;SDS011;40915;50.826;4.356;2023-11-21T04:41:25;34.08;;;20.52;;
25627;SDS011;40915;50.826;4.356;2023-11-21T04:43:51;31.52;;;19.55;;
25627;SDS011;40915;50.826;4.356;2023-11-21T04:46:16;34.13;;;19.25;;
25627;SDS011;40915;50.826;4.356;2023-11-21T04:48:42;35.30;;;20.13;;
25627;SDS011;40915;50.826;4.356;2023-11-21T04:51:08;29.05;;;18.65;;
25627;SDS011;40915;50.826;4.356;2023-11-21T04:53:34;33.67;;;19.73;;
25627;SDS011;40915;50.826;4.356;2023-11-21T04:55:59;28.57;;;18.67;;
25627;SDS011;40915;50.826;4.356;2023-11-21T04:58:25;33.67;;;20.17;;
25627;SDS011;40915;50.826;4.356;2023-11-21T05:00:51;30.33;;;19.30;;
25627;SDS011;40915;50.826;4.356;2023-11-21T05:03:16;30.63;;;18.43;;
25627;SDS011;40915;50.826;4.356;2023-11-21T05:05:42;31.80;;;19.80;;
25627;SDS011;40915;50.826;4.356;2023-11-21T05:08:07;31.47;;;18.43;;
25627;SDS011;40915;50.826;4.356;2023-11-21T05:10:33;32.83;;;19.37;;
25627;SDS011;40915;50.826;4.356;2023-11-21T05:12:59;30.00;;;18.90;;
25627;SDS011;40915;50.826;4.356;2023-11-21T05:15:25;33.37;;;19.90;;
25627;SDS011;40915;50.826;4.356;2023-11-21T05:17:52;32.27;;;19.80;;
25627;SDS011;40915;50.826;4.356;2023-11-21T05:20:18;28.93;;;19.17;;
25627;SDS011;40915;50.826;4.356;2023-11-21T05:22:46;33.27;;;19.53;;
25627;SDS011;40915;50.826;4.356;2023-11-21T05:25:15;33.63;;;20.00;;
25627;SDS011;40915;50.826;4.356;2023-11-21T05:27:45;25.90;;;17.93;;
25627;SDS011;40915;50.826;4.356;2023-11-21T05:30:11;32.93;;;18.07;;
25627;SDS011;40915;50.826;4.356;2023-11-21T05:32:37;31.73;;;18.60;;
25627;SDS011;40915;50.826;4.356;2023-11-21T05:35:04;27.40;;;18.57;;
25627;SDS011;40915;50.826;4.356;2023-11-21T05:37:36;33.47;;;19.23;;
25627;SDS011;40915;50.826;4.356;2023-11-21T05:40:04;29.97;;;18.67;;
25627;SDS011;40915;50.826;4.356;2023-11-21T05:42:31;30.77;;;18.80;;
25627;SDS011;40915;50.826;4.356;2023-11-21T05:45:00;29.83;;;18.97;;
25627;SDS011;40915;50.826;4.356;2023-11-21T05:47:38;32.23;;;20.73;;
25627;SDS011;40915;50.826;4.356;2023-11-21T05:50:13;28.63;;;18.13;;
25627;SDS011;40915;50.826;4.356;2023-11-21T05:52:44;32.20;;;18.93;;
25627;SDS011;40915;50.826;4.356;2023-11-21T05:55:10;34.40;;;19.57;;
25627;SDS011;40915;50.826;4.356;2023-11-21T05:57:36;33.27;;;19.97;;
25627;SDS011;40915;50.826;4.356;2023-11-21T06:00:04;31.05;;;19.13;;
25627;SDS011;40915;50.826;4.356;2023-11-21T06:02:39;30.23;;;18.55;;
25627;SDS011;40915;50.826;4.356;2023-11-21T06:05:08;27.83;;;18.90;;
25627;SDS011;40915;50.826;4.356;2023-11-21T06:07:35;30.37;;;19.27;;
25627;SDS011;40915;50.826;4.356;2023-11-21T06:10:01;28.02;;;19.17;;
25627;SDS011;40915;50.826;4.356;2023-11-21T06:12:34;30.27;;;18.87;;
25627;SDS011;40915;50.826;4.356;2023-11-21T06:15:01;30.02;;;19.10;;
25627;SDS011;40915;50.826;4.356;2023-11-21T06:17:33;31.48;;;19.55;;
25627;SDS011;40915;50.826;4.356;2023-11-21T06:20:02;33.38;;;19.52;;
25627;SDS011;40915;50.826;4.356;2023-11-21T06:22:34;31.10;;;19.17;;
25627;SDS011;40915;50.826;4.356;2023-11-21T06:25:06;35.37;;;19.67;;
25627;SDS011;40915;50.826;4.356;2023-11-21T06:27:33;33.57;;;20.60;;
25627;SDS011;40915;50.826;4.356;2023-11-21T06:30:03;36.60;;;19.97;;
25627;SDS011;40915;50.826;4.356;2023-11-21T06:32:30;32.37;;;19.57;;
25627;SDS011;40915;50.826;4.356;2023-11-21T06:34:56;33.50;;;19.83;;
25627;SDS011;40915;50.826;4.356;2023-11-21T06:37:24;32.27;;;19.83;;
25627;SDS011;40915;50.826;4.356;2023-11-21T06:39:50;29.83;;;19.13;;
25627;SDS011;40915;50.826;4.356;2023-11-21T06:42:17;30.05;;;18.50;;
25627;SDS011;40915;50.826;4.356;2023-11-21T06:44:44;26.77;;;17.27;;
25627;SDS011;40915;50.826;4.356;2023-11-21T06:47:10;33.30;;;20.80;;
25627;SDS011;40915;50.826;4.356;2023-11-21T06:49:36;31.53;;;19.30;;
25627;SDS011;40915;50.826;4.356;2023-11-21T06:52:03;31.10;;;19.40;;
25627;SDS011;40915;50.826;4.356;2023-11-21T06:54:30;32.17;;;18.57;;
25627;SDS011;40915;50.826;4.356;2023-11-21T06:56:56;25.90;;;18.30;;
25627;SDS011;40915;50.826;4.356;2023-11-21T06:59:23;28.63;;;18.83;;
25627;SDS011;40915;50.826;4.356;2023-11-21T07:01:49;32.90;;;19.27;;
25627;SDS011;40915;50.826;4.356;2023-11-21T07:04:14;26.88;;;18.50;;
25627;SDS011;40915;50.826;4.356;2023-11-21T07:06:40;28.90;;;17.63;;
25627;SDS011;40915;50.826;4.356;2023-11-21T07:09:06;30.87;;;18.30;;
25627;SDS011;40915;50.826;4.356;2023-11-21T07:11:33;28.77;;;19.10;;
25627;SDS011;40915;50.826;4.356;2023-11-21T07:13:59;28.67;;;19.13;;
25627;SDS011;40915;50.826;4.356;2023-11-21T07:16:30;29.07;;;19.10;;
25627;SDS011;40915;50.826;4.356;2023-11-21T07:18:56;33.07;;;19.77;;
25627;SDS011;40915;50.826;4.356;2023-11-21T07:21:21;31.75;;;19.13;;
25627;SDS011;40915;50.826;4.356;2023-11-21T07:23:47;32.63;;;19.50;;
25627;SDS011;40915;50.826;4.356;2023-11-21T07:26:12;35.90;;;19.73;;
25627;SDS011;40915;50.826;4.356;2023-11-21T07:28:38;32.10;;;20.87;;
25627;SDS011;40915;50.826;4.356;2023-11-21T07:31:04;38.42;;;21.17;;
25627;SDS011;40915;50.826;4.356;2023-11-21T07:33:29;37.70;;;21.25;;
25627;SDS011;40915;50.826;4.356;2023-11-21T07:35:55;33.83;;;21.17;;
25627;SDS011;40915;50.826;4.356;2023-11-21T07:38:21;30.33;;;20.58;;
25627;SDS011;40915;50.826;4.356;2023-11-21T07:40:46;35.57;;;20.53;;
25627;SDS011;40915;50.826;4.356;2023-11-21T07:43:12;37.50;;;20.83;;
25627;SDS011;40915;50.826;4.356;2023-11-21T07:45:37;37.90;;;20.83;;
25627;SDS011;40915;50.826;4.356;2023-11-21T07:48:03;43.22;;;21.42;;
25627;SDS011;40915;50.826;4.356;2023-11-21T07:50:30;45.13;;;22.45;;
25627;SDS011;40915;50.826;4.356;2023-11-21T07:52:56;36.67;;;21.67;;
25627;SDS011;40915;50.826;4.356;2023-11-21T07:55:23;32.85;;;21.20;;
25627;SDS011;40915;50.826;4.356;2023-11-21T07:57:49;33.25;;;21.15;;
25627;SDS011;40915;50.826;4.356;2023-11-21T08:00:15;43.70;;;23.05;;
25627;SDS011;40915;50.826;4.356;2023-11-21T08:02:41;49.67;;;24.60;;
25627;SDS011;40915;50.826;4.356;2023-11-21T08:05:08;45.87;;;23.80;;
25627;SDS011;40915;50.826;4.356;2023-11-21T08:07:34;43.90;;;21.45;;
25627;SDS011;40915;50.826;4.356;2023-11-21T08:10:00;41.60;;;22.55;;
25627;SDS011;40915;50.826;4.356;2023-11-21T08:12:25;42.97;;;21.65;;
25627;SDS011;40915;50.826;4.356;2023-11-21T08:14:52;37.03;;;22.42;;
25627;SDS011;40915;50.826;4.356;2023-11-21T08:17:18;38.03;;;21.43;;
25627;SDS011;40915;50.826;4.356;2023-11-21T08:19:45;49.70;;;23.88;;
25627;SDS011;40915;50.826;4.356;2023-11-21T08:22:14;45.15;;;21.98;;
25627;SDS011;40915;50.826;4.356;2023-11-21T08:24:41;37.45;;;21.67;;
25627;SDS011;40915;50.826;4.356;2023-11-21T08:27:07;44.13;;;23.05;;
25627;SDS011;40915;50.826;4.356;2023-11-21T08:29:32;40.30;;;22.10;;
25627;SDS011;40915;50.826;4.356;2023-11-21T08:31:59;40.58;;;22.30;;
25627;SDS011;40915;50.826;4.356;2023-11-21T08:34:25;50.80;;;23.42;;
25627;SDS011;40915;50.826;4.356;2023-11-21T08:36:50;37.78;;;20.92;;
25627;SDS011;40915;50.826;4.356;2023-11-21T08:39:16;39.40;;;22.95;;
25627;SDS011;40915;50.826;4.356;2023-11-21T08:41:44;39.35;;;22.30;;
25627;SDS011;40915;50.826;4.356;2023-11-21T08:44:09;40.30;;;21.73;;
25627;SDS011;40915;50.826;4.356;2023-11-21T08:46:36;42.50;;;23.10;;
25627;SDS011;40915;50.826;4.356;2023-11-21T08:49:02;44.97;;;23.42;;
25627;SDS011;40915;50.826;4.356;2023-11-21T08:51:28;35.53;;;20.98;;
25627;SDS011;40915;50.826;4.356;2023-11-21T08:53:54;39.22;;;20.70;;
25627;SDS011;40915;50.826;4.356;2023-11-21T08:56:24;42.42;;;22.63;;
25627;SDS011;40915;50.826;4.356;2023-11-21T08:58:49;43.03;;;23.27;;
25627;SDS011;40915;50.826;4.356;2023-11-21T09:01:15;44.58;;;22.30;;
25627;SDS011;40915;50.826;4.356;2023-11-21T09:03:42;45.95;;;23.77;;
25627;SDS011;40915;50.826;4.356;2023-11-21T09:06:08;51.42;;;31.40;;
25627;SDS011;40915;50.826;4.356;2023-11-21T09:08:35;76.10;;;43.40;;
25627;SDS011;40915;50.826;4.356;2023-11-21T09:11:00;50.00;;;30.80;;
25627;SDS011;40915;50.826;4.356;2023-11-21T09:13:27;49.15;;;23.88;;
25627;SDS011;40915;50.826;4.356;2023-11-21T09:15:54;48.38;;;24.95;;
25627;SDS011;40915;50.826;4.356;2023-11-21T09:18:20;46.28;;;23.90;;
25627;SDS011;40915;50.826;4.356;2023-11-21T09:20:46;47.17;;;21.55;;
25627;SDS011;40915;50.826;4.356;2023-11-21T09:23:11;48.92;;;22.80;;
25627;SDS011;40915;50.826;4.356;2023-11-21T09:25:37;46.83;;;23.73;;
25627;SDS011;40915;50.826;4.356;2023-11-21T09:28:05;44.58;;;21.73;;
25627;SDS011;40915;50.826;4.356;2023-11-21T09:30:36;49.30;;;22.63;;
25627;SDS011;40915;50.826;4.356;2023-11-21T09:33:02;51.72;;;23.50;;
25627;SDS011;40915;50.826;4.356;2023-11-21T09:35:33;44.40;;;23.25;;
25627;SDS011;40915;50.826;4.356;2023-11-21T09:37:59;55.97;;;23.67;;
25627;SDS011;40915;50.826;4.356;2023-11-21T09:40:26;47.35;;;22.42;;
25627;SDS011;40915;50.826;4.356;2023-11-21T09:42:55;46.80;;;23.95;;
25627;SDS011;40915;50.826;4.356;2023-11-21T09:47:55;48.13;;;22.95;;
25627;SDS011;40915;50.826;4.356;2023-11-21T09:50:21;44.38;;;22.52;;
25627;SDS011;40915;50.826;4.356;2023-11-21T09:55:50;47.35;;;23.75;;
25627;SDS011;40915;50.826;4.356;2023-11-21T09:58:17;41.30;;;20.95;;
25627;SDS011;40915;50.826;4.356;2023-11-21T10:00:44;41.85;;;21.30;;
25627;SDS011;40915;50.826;4.356;2023-11-21T10:03:12;52.90;;;22.05;;
25627;SDS011;40915;50.826;4.356;2023-11-21T10:05:39;49.00;;;22.02;;
25627;SDS011;40915;50.826;4.356;2023-11-21T10:08:07;46.13;;;22.20;;
25627;SDS011;40915;50.826;4.356;2023-11-21T10:10:35;52.80;;;25.23;;
25627;SDS011;40915;50.826;4.356;2023-11-21T10:13:02;41.70;;;21.92;;
25627;SDS011;40915;50.826;4.356;2023-11-21T10:15:35;42.45;;;23.20;;
25627;SDS011;40915;50.826;4.356;2023-11-21T10:18:04;47.25;;;22.65;;
25627;SDS011;40915;50.826;4.356;2023-11-21T10:20:32;42.47;;;21.30;;
25627;SDS011;40915;50.826;4.356;2023-11-21T10:22:59;38.60;;;20.73;;
25627;SDS011;40915;50.826;4.356;2023-11-21T10:25:28;25.35;;;16.27;;
25627;SDS011;40915;50.826;4.356;2023-11-21T10:27:57;23.05;;;14.32;;
25627;SDS011;40915;50.826;4.356;2023-11-21T10:33:06;33.10;;;24.60;;
25627;SDS011;40915;50.826;4.356;2023-11-21T10:38:11;25.08;;;15.40;;
25627;SDS011;40915;50.826;4.356;2023-11-21T10:40:40;22.88;;;14.80;;
25627;SDS011;40915;50.826;4.356;2023-11-21T10:43:07;23.48;;;15.27;;
25627;SDS011;40915;50.826;4.356;2023-11-21T10:45:36;23.45;;;15.82;;
25627;SDS011;40915;50.826;4.356;2023-11-21T10:48:04;26.23;;;16.27;;
25627;SDS011;40915;50.826;4.356;2023-11-21T10:50:33;22.52;;;15.15;;
25627;SDS011;40915;50.826;4.356;2023-11-21T10:53:01;27.77;;;16.48;;
25627;SDS011;40915;50.826;4.356;2023-11-21T10:55:29;29.40;;;16.77;;
25627;SDS011;40915;50.826;4.356;2023-11-21T10:57:57;23.48;;;15.93;;
25627;SDS011;40915;50.826;4.356;2023-11-21T11:00:24;25.05;;;16.67;;
25627;SDS011;40915;50.826;4.356;2023-11-21T11:02:52;27.05;;;17.50;;
25627;SDS011;40915;50.826;4.356;2023-11-21T11:05:24;23.90;;;16.60;;
25627;SDS011;40915;50.826;4.356;2023-11-21T11:07:51;24.75;;;16.00;;
25627;SDS011;40915;50.826;4.356;2023-11-21T11:10:25;26.27;;;16.70;;
25627;SDS011;40915;50.826;4.356;2023-11-21T11:12:53;23.55;;;16.23;;
25627;SDS011;40915;50.826;4.356;2023-11-21T11:15:20;27.20;;;18.13;;
25627;SDS011;40915;50.826;4.356;2023-11-21T11:17:46;28.75;;;17.83;;
25627;SDS011;40915;50.826;4.356;2023-11-21T11:20:14;28.05;;;19.25;;
25627;SDS011;40915;50.826;4.356;2023-11-21T11:28:26;31.05;;;20.98;;
25627;SDS011;40915;50.826;4.356;2023-11-21T11:31:00;33.13;;;20.92;;
25627;SDS011;40915;50.826;4.356;2023-11-21T11:36:43;34.58;;;21.70;;
25627;SDS011;40915;50.826;4.356;2023-11-21T11:39:28;40.13;;;23.95;;
25627;SDS011;40915;50.826;4.356;2023-11-21T11:41:57;34.65;;;22.38;;
25627;SDS011;40915;50.826;4.356;2023-11-21T11:47:16;30.50;;;21.27;;
25627;SDS011;40915;50.826;4.356;2023-11-21T11:50:09;31.48;;;21.58;;
25627;SDS011;40915;50.826;4.356;2023-11-21T11:52:54;29.15;;;19.38;;
25627;SDS011;40915;50.826;4.356;2023-11-21T11:55:23;28.48;;;19.05;;
25627;SDS011;40915;50.826;4.356;2023-11-21T11:57:53;28.10;;;19.13;;
25627;SDS011;40915;50.826;4.356;2023-11-21T12:02:52;26.00;;;18.13;;
25627;SDS011;40915;50.826;4.356;2023-11-21T12:05:21;22.58;;;17.23;;
25627;SDS011;40915;50.826;4.356;2023-11-21T12:07:52;21.02;;;15.23;;
25627;SDS011;40915;50.826;4.356;2023-11-21T12:10:20;20.15;;;14.77;;
25627;SDS011;40915;50.826;4.356;2023-11-21T12:12:50;18.33;;;13.98;;
25627;SDS011;40915;50.826;4.356;2023-11-21T12:15:19;17.35;;;13.23;;
25627;SDS011;40915;50.826;4.356;2023-11-21T12:17:46;17.85;;;12.45;;
25627;SDS011;40915;50.826;4.356;2023-11-21T12:20:14;17.27;;;13.68;;
25627;SDS011;40915;50.826;4.356;2023-11-21T12:25:17;18.83;;;13.80;;
25627;SDS011;40915;50.826;4.356;2023-11-21T12:27:46;16.27;;;13.68;;
25627;SDS011;40915;50.826;4.356;2023-11-21T12:30:17;20.60;;;14.32;;
25627;SDS011;40915;50.826;4.356;2023-11-21T12:32:44;21.17;;;13.77;;
25627;SDS011;40915;50.826;4.356;2023-11-21T12:35:13;18.73;;;12.85;;
25627;SDS011;40915;50.826;4.356;2023-11-21T12:37:40;23.08;;;13.77;;
25627;SDS011;40915;50.826;4.356;2023-11-21T12:40:08;19.35;;;13.77;;
25627;SDS011;40915;50.826;4.356;2023-11-21T12:42:43;20.42;;;13.10;;
25627;SDS011;40915;50.826;4.356;2023-11-21T12:48:02;14.50;;;9.65;;
25627;SDS011;40915;50.826;4.356;2023-11-21T12:50:33;13.85;;;9.20;;
25627;SDS011;40915;50.826;4.356;2023-11-21T12:53:02;18.55;;;10.00;;
25627;SDS011;40915;50.826;4.356;2023-11-21T12:55:32;11.98;;;8.85;;
25627;SDS011;40915;50.826;4.356;2023-11-21T12:58:00;12.68;;;8.43;;
25627;SDS011;40915;50.826;4.356;2023-11-21T13:00:42;13.80;;;8.30;;
25627;SDS011;40915;50.826;4.356;2023-11-21T13:03:11;12.70;;;9.10;;
25627;SDS011;40915;50.826;4.356;2023-11-21T13:05:41;14.43;;;8.55;;
25627;SDS011;40915;50.826;4.356;2023-11-21T13:08:10;18.65;;;10.50;;
25627;SDS011;40915;50.826;4.356;2023-11-21T13:10:38;13.70;;;9.98;;
25627;SDS011;40915;50.826;4.356;2023-11-21T13:13:07;16.05;;;10.13;;
25627;SDS011;40915;50.826;4.356;2023-11-21T13:15:35;16.23;;;10.70;;
25627;SDS011;40915;50.826;4.356;2023-11-21T13:18:05;17.13;;;11.30;;
25627;SDS011;40915;50.826;4.356;2023-11-21T13:20:32;18.50;;;11.02;;
25627;SDS011;40915;50.826;4.356;2023-11-21T13:22:58;21.45;;;12.40;;
25627;SDS011;40915;50.826;4.356;2023-11-21T13:25:25;18.23;;;12.60;;
25627;SDS011;40915;50.826;4.356;2023-11-21T13:27:56;17.88;;;12.77;;
25627;SDS011;40915;50.826;4.356;2023-11-21T13:30:22;28.35;;;13.27;;
25627;SDS011;40915;50.826;4.356;2023-11-21T13:32:53;17.33;;;12.57;;
25627;SDS011;40915;50.826;4.356;2023-11-21T13:35:23;16.42;;;11.13;;
25627;SDS011;40915;50.826;4.356;2023-11-21T13:38:07;16.95;;;11.07;;
25627;SDS011;40915;50.826;4.356;2023-11-21T13:40:33;18.67;;;11.98;;
25627;SDS011;40915;50.826;4.356;2023-11-21T13:43:05;17.92;;;12.38;;
25627;SDS011;40915;50.826;4.356;2023-11-21T13:45:34;20.55;;;12.10;;
25627;SDS011;40915;50.826;4.356;2023-11-21T13:48:00;20.67;;;12.48;;
25627;SDS011;40915;50.826;4.356;2023-11-21T13:50:26;21.33;;;13.00;;
25627;SDS011;40915;50.826;4.356;2023-11-21T13:52:58;16.63;;;12.23;;
25627;SDS011;40915;50.826;4.356;2023-11-21T13:55:34;19.98;;;12.15;;
25627;SDS011;40915;50.826;4.356;2023-11-21T13:58:00;17.65;;;12.13;;
25627;SDS011;40915;50.826;4.356;2023-11-21T14:00:34;16.02;;;11.20;;
25627;SDS011;40915;50.826;4.356;2023-11-21T14:03:13;16.58;;;10.05;;
25627;SDS011;40915;50.826;4.356;2023-11-21T14:05:46;12.63;;;9.23;;
25627;SDS011;40915;50.826;4.356;2023-11-21T14:08:16;15.07;;;9.25;;
25627;SDS011;40915;50.826;4.356;2023-11-21T14:10:49;9.57;;;7.70;;
25627;SDS011;40915;50.826;4.356;2023-11-21T14:13:22;10.68;;;8.30;;
25627;SDS011;40915;50.826;4.356;2023-11-21T14:15:49;13.30;;;8.80;;
25627;SDS011;40915;50.826;4.356;2023-11-21T14:18:27;12.20;;;7.63;;
25627;SDS011;40915;50.826;4.356;2023-11-21T14:21:03;8.88;;;6.93;;
25627;SDS011;40915;50.826;4.356;2023-11-21T14:23:30;9.70;;;6.32;;
25627;SDS011;40915;50.826;4.356;2023-11-21T14:25:56;8.10;;;6.00;;
25627;SDS011;40915;50.826;4.356;2023-11-21T14:28:23;10.87;;;5.43;;
25627;SDS011;40915;50.826;4.356;2023-11-21T14:30:48;7.65;;;5.03;;
25627;SDS011;40915;50.826;4.356;2023-11-21T14:33:14;7.10;;;5.85;;
25627;SDS011;40915;50.826;4.356;2023-11-21T14:35:41;7.68;;;5.05;;
25627;SDS011;40915;50.826;4.356;2023-11-21T14:38:08;9.80;;;7.15;;
25627;SDS011;40915;50.826;4.356;2023-11-21T14:40:35;6.63;;;5.13;;
25627;SDS011;40915;50.826;4.356;2023-11-21T14:43:01;8.30;;;5.57;;
25627;SDS011;40915;50.826;4.356;2023-11-21T14:45:30;10.18;;;6.05;;
25627;SDS011;40915;50.826;4.356;2023-11-21T14:47:56;9.48;;;5.95;;
25627;SDS011;40915;50.826;4.356;2023-11-21T14:50:31;8.38;;;6.20;;
25627;SDS011;40915;50.826;4.356;2023-11-21T14:53:06;9.30;;;5.72;;
25627;SDS011;40915;50.826;4.356;2023-11-21T14:55:35;8.73;;;5.85;;